Time;durP1;ratioP1;P1;durP2;ratioP2;P2;SDS_P1;SDS_P2;PMS_P1;PMS_P2;Temp;Humidity;BMP_temperature;BMP_pressure;BME280_temperature;BME280_humidity;BME280_pressure;Samples;Min_cycle;Max_cycle;Signal;HPM_P1;HPM_P2
2022/05/10 00:01:20;;;;;;;6.00;2.60;;;15.40;99.90;;;;;;5131107;27;20233;-63
2022/05/10 00:03:50;;;;;;;6.30;2.80;;;15.40;99.90;;;;;;5123756;27;20225;-62
2022/05/10 00:06:18;;;;;;;6.17;2.83;;;15.30;99.90;;;;;;5130466;27;20233;-62
2022/05/10 00:08:47;;;;;;;5.60;2.80;;;15.40;99.90;;;;;;5129409;27;20705;-62
2022/05/10 00:11:17;;;;;;;5.13;2.83;;;15.30;99.90;;;;;;5130904;27;20229;-62
2022/05/10 00:13:45;;;;;;;8.30;3.07;;;15.30;99.90;;;;;;5131087;27;20233;-62
2022/05/10 00:16:15;;;;;;;5.63;2.93;;;15.30;99.90;;;;;;5130673;27;20239;-62
2022/05/10 00:18:44;;;;;;;7.67;2.80;;;15.30;99.90;;;;;;5131630;27;20228;-62
2022/05/10 00:21:16;;;;;;;10.60;2.80;;;15.20;99.90;;;;;;5133889;27;20229;-62
2022/05/10 00:23:44;;;;;;;4.97;2.70;;;15.20;99.90;;;;;;5134790;27;20240;-62
2022/05/10 00:26:12;;;;;;;5.40;2.67;;;15.20;99.90;;;;;;5134753;27;20225;-62
2022/05/10 00:28:42;;;;;;;9.10;3.30;;;15.10;99.90;;;;;;5132793;27;20263;-62
2022/05/10 00:31:12;;;;;;;8.63;3.40;;;15.10;99.90;;;;;;5134345;27;20239;-62
2022/05/10 00:33:40;;;;;;;5.73;2.93;;;15.10;99.90;;;;;;5134419;27;20235;-62
2022/05/10 00:36:11;;;;;;;6.63;2.80;;;15.10;99.90;;;;;;5134378;27;20228;-62
2022/05/10 00:38:41;;;;;;;5.83;3.03;;;15.10;99.90;;;;;;5130934;27;20772;-62
2022/05/10 00:41:15;;;;;;;5.90;2.80;;;15.00;99.90;;;;;;5112922;27;20276;-62
2022/05/10 00:43:47;;;;;;;5.43;3.30;;;15.00;99.90;;;;;;5134353;27;20264;-62
2022/05/10 00:46:20;;;;;;;5.03;3.13;;;15.10;99.90;;;;;;5134492;27;20241;-62
2022/05/10 00:48:53;;;;;;;6.70;3.37;;;15.10;99.90;;;;;;5131708;27;20241;-62
2022/05/10 00:51:28;;;;;;;6.23;2.70;;;15.10;99.90;;;;;;5134730;27;20260;-64
2022/05/10 00:54:01;;;;;;;6.47;3.60;;;15.00;99.90;;;;;;5134275;27;20232;-62
2022/05/10 00:56:38;;;;;;;4.53;2.77;;;15.00;99.90;;;;;;5134342;27;20229;-62
2022/05/10 00:59:16;;;;;;;4.80;2.80;;;15.10;99.90;;;;;;5132809;27;20626;-62
2022/05/10 01:01:49;;;;;;;5.23;2.83;;;15.00;99.90;;;;;;5133810;27;20261;-62
2022/05/10 01:04:25;;;;;;;4.83;2.70;;;15.00;99.90;;;;;;5133513;27;20290;-62
2022/05/10 01:06:58;;;;;;;6.53;3.07;;;14.90;99.90;;;;;;5133622;27;20236;-62
2022/05/10 01:09:33;;;;;;;5.47;2.70;;;14.90;99.90;;;;;;5132563;27;20314;-62
2022/05/10 01:12:08;;;;;;;7.40;3.13;;;14.90;99.90;;;;;;5133794;27;20285;-63
2022/05/10 01:14:47;;;;;;;4.77;3.00;;;14.90;99.90;;;;;;5134590;27;20245;-62
2022/05/10 01:17:16;;;;;;;6.00;2.77;;;14.80;99.90;;;;;;5133525;27;20240;-63
2022/05/10 01:19:45;;;;;;;4.80;2.80;;;14.80;99.90;;;;;;5129686;27;20229;-62
2022/05/10 01:22:49;;;;;;;6.70;2.90;;;14.80;99.90;;;;;;5133746;27;20237;-62
2022/05/10 01:25:27;;;;;;;5.60;3.17;;;14.80;99.90;;;;;;5133756;27;20600;-62
2022/05/10 01:28:23;;;;;;;6.70;3.10;;;14.70;99.90;;;;;;5131663;27;20242;-63
2022/05/10 01:30:52;;;;;;;4.07;3.10;;;14.80;99.90;;;;;;5113907;27;20746;-62
2022/05/10 01:33:30;;;;;;;5.17;3.43;;;14.70;99.90;;;;;;5132937;27;20907;-62
2022/05/10 01:36:11;;;;;;;3.47;2.83;;;14.70;99.90;;;;;;5133545;27;20724;-62
2022/05/10 01:38:47;;;;;;;5.83;3.17;;;14.70;99.90;;;;;;5131399;27;20228;-63
2022/05/10 01:41:24;;;;;;;5.30;3.37;;;14.70;99.90;;;;;;5133205;27;20241;-62
2022/05/10 01:44:02;;;;;;;5.47;3.23;;;14.60;99.90;;;;;;5133268;27;20785;-62
2022/05/10 01:46:32;;;;;;;6.60;3.00;;;14.60;99.90;;;;;;5133569;27;20225;-62
2022/05/10 01:49:13;;;;;;;8.87;2.93;;;14.60;99.90;;;;;;5124984;27;20614;-62
2022/05/10 01:51:47;;;;;;;7.07;3.40;;;14.60;99.90;;;;;;5124461;27;20348;-63
2022/05/10 01:54:42;;;;;;;4.77;3.10;;;14.70;99.90;;;;;;5133328;27;20260;-61
2022/05/10 01:57:14;;;;;;;5.43;2.90;;;14.70;99.90;;;;;;5125384;27;20284;-62
2022/05/10 01:59:50;;;;;;;7.20;3.30;;;14.70;99.90;;;;;;5131265;27;20233;-62
2022/05/10 02:02:23;;;;;;;6.83;3.40;;;14.70;99.90;;;;;;5132479;27;20277;-62
2022/05/10 02:04:57;;;;;;;5.70;3.07;;;14.70;99.90;;;;;;5125931;27;20676;-62
2022/05/10 02:07:26;;;;;;;3.70;2.80;;;14.70;99.90;;;;;;5132632;27;20264;-63
2022/05/10 02:10:01;;;;;;;6.90;3.40;;;14.70;99.90;;;;;;5131463;27;20233;-62
2022/05/10 02:12:41;;;;;;;6.50;3.60;;;14.70;99.90;;;;;;5132941;27;20698;-62
2022/05/10 02:15:14;;;;;;;5.87;3.43;;;14.70;99.90;;;;;;5133155;27;20282;-62
2022/05/10 02:17:48;;;;;;;5.20;3.17;;;14.60;99.90;;;;;;5130505;27;20745;-62
2022/05/10 02:20:22;;;;;;;7.90;2.93;;;14.60;99.90;;;;;;5132389;27;20240;-63
2022/05/10 02:22:58;;;;;;;5.40;3.20;;;14.60;99.90;;;;;;5132337;27;20237;-62
2022/05/10 02:25:30;;;;;;;6.27;3.13;;;14.60;99.90;;;;;;5132847;27;20256;-62
2022/05/10 02:28:04;;;;;;;4.57;3.20;;;14.50;99.90;;;;;;5130645;27;20273;-63
2022/05/10 02:30:36;;;;;;;6.00;3.30;;;14.50;99.90;;;;;;5132270;27;20232;-62
2022/05/10 02:33:07;;;;;;;7.13;3.60;;;14.40;99.90;;;;;;5131592;27;20237;-63
2022/05/10 02:35:43;;;;;;;3.80;3.10;;;14.40;99.90;;;;;;5129616;27;20225;-62
2022/05/10 02:38:14;;;;;;;5.93;3.67;;;14.40;99.90;;;;;;5119394;27;20232;-61
2022/05/10 02:40:43;;;;;;;5.73;3.13;;;14.40;99.90;;;;;;5123457;27;20316;-62
2022/05/10 02:43:17;;;;;;;5.70;3.40;;;14.30;99.90;;;;;;5132605;27;20233;-62
2022/05/10 02:45:46;;;;;;;6.23;3.33;;;14.40;99.90;;;;;;5132077;27;20240;-62
2022/05/10 02:48:17;;;;;;;5.60;3.30;;;14.30;99.90;;;;;;5130500;27;20229;-62
2022/05/10 02:50:45;;;;;;;6.40;3.47;;;14.20;99.90;;;;;;5124171;27;20283;-62
2022/05/10 02:53:14;;;;;;;6.03;3.07;;;14.20;99.90;;;;;;5132253;27;20229;-62
2022/05/10 02:55:53;;;;;;;5.67;3.50;;;14.20;99.90;;;;;;5131345;27;20260;-62
2022/05/10 02:58:38;;;;;;;6.60;3.67;;;14.10;99.90;;;;;;5129601;27;20736;-62
2022/05/10 03:01:19;;;;;;;5.40;3.20;;;14.10;99.90;;;;;;5131449;27;20233;-62
2022/05/10 03:03:48;;;;;;;6.97;3.27;;;14.20;99.90;;;;;;5124134;27;20267;-62
2022/05/10 03:06:21;;;;;;;4.30;3.30;;;14.20;99.90;;;;;;5131877;27;20233;-63
2022/05/10 03:08:51;;;;;;;7.37;3.30;;;14.20;99.90;;;;;;5129570;27;20272;-62
2022/05/10 03:11:19;;;;;;;5.67;3.03;;;14.10;99.90;;;;;;5131018;27;20225;-62
2022/05/10 03:13:48;;;;;;;7.23;3.83;;;14.10;99.90;;;;;;5131035;27;20240;-62
2022/05/10 03:16:23;;;;;;;8.07;3.90;;;14.10;99.90;;;;;;5128261;27;20251;-62
2022/05/10 03:18:52;;;;;;;6.07;3.93;;;14.00;99.90;;;;;;5129025;27;20228;-62
2022/05/10 03:21:20;;;;;;;5.30;3.73;;;14.10;99.90;;;;;;5130999;27;20264;-62
2022/05/10 03:23:48;;;;;;;5.73;3.53;;;14.00;99.90;;;;;;5131234;27;20244;-62
2022/05/10 03:26:22;;;;;;;7.70;3.77;;;14.00;99.90;;;;;;5131501;27;20240;-62
2022/05/10 03:28:51;;;;;;;6.53;3.60;;;14.00;99.90;;;;;;5129565;27;20246;-62
2022/05/10 03:31:22;;;;;;;6.17;3.80;;;14.00;99.90;;;;;;5130622;27;20337;-62
2022/05/10 03:36:33;;;;;;;5.97;3.80;;;14.00;99.90;;;;;;5130655;27;20237;-62
2022/05/10 03:39:02;;;;;;;6.07;3.80;;;13.90;99.90;;;;;;5129622;27;20237;-62
2022/05/10 03:41:31;;;;;;;6.90;4.00;;;13.90;99.90;;;;;;5131332;27;20669;-62
2022/05/10 03:43:59;;;;;;;4.93;3.80;;;13.90;99.90;;;;;;5130418;27;20592;-62
2022/05/10 03:46:27;;;;;;;5.13;3.67;;;13.90;99.90;;;;;;5130163;27;20321;-62
2022/05/10 03:48:57;;;;;;;7.93;3.90;;;13.90;99.90;;;;;;5129410;28;20909;-62
2022/05/10 03:51:25;;;;;;;6.57;3.60;;;13.90;99.90;;;;;;5130871;27;20232;-61
2022/05/10 03:53:54;;;;;;;7.30;4.20;;;14.00;99.90;;;;;;5130630;27;20225;-62
2022/05/10 03:56:22;;;;;;;8.30;4.00;;;13.90;99.90;;;;;;5135018;27;20232;-62
2022/05/10 03:58:50;;;;;;;4.90;3.83;;;14.00;99.90;;;;;;5133072;27;20229;-62
2022/05/10 04:01:19;;;;;;;6.70;3.90;;;13.90;99.90;;;;;;5133947;27;20312;-62
2022/05/10 04:03:47;;;;;;;8.03;4.17;;;14.00;99.90;;;;;;5134837;27;20245;-62
2022/05/10 04:06:17;;;;;;;5.10;3.70;;;14.00;99.90;;;;;;5132287;27;20236;-62
2022/05/10 04:08:46;;;;;;;7.97;4.00;;;13.90;99.90;;;;;;5132973;27;20613;-62
2022/05/10 04:11:15;;;;;;;12.10;4.10;;;13.90;99.90;;;;;;5132054;27;20228;-62
2022/05/10 04:13:44;;;;;;;6.73;3.87;;;13.90;99.90;;;;;;5134130;27;20237;-62
2022/05/10 04:16:12;;;;;;;6.37;3.93;;;13.90;99.90;;;;;;5134313;27;20233;-62
2022/05/10 04:18:41;;;;;;;6.43;3.70;;;13.90;99.90;;;;;;5133715;27;20232;-62
2022/05/10 04:21:09;;;;;;;6.20;3.77;;;13.90;99.90;;;;;;5134600;27;20229;-61
2022/05/10 04:23:39;;;;;;;6.03;3.33;;;14.00;99.90;;;;;;5131939;27;20237;-62
2022/05/10 04:26:12;;;;;;;5.87;3.47;;;13.90;99.90;;;;;;5135059;27;20286;-62
2022/05/10 04:28:42;;;;;;;8.43;3.70;;;14.00;99.90;;;;;;5130367;27;20225;-62
2022/05/10 04:31:11;;;;;;;5.93;3.77;;;14.00;99.90;;;;;;5132474;27;20229;-62
2022/05/10 04:33:39;;;;;;;5.73;4.10;;;14.10;99.90;;;;;;5135172;27;20245;-62
2022/05/10 04:36:09;;;;;;;6.13;4.40;;;14.10;99.90;;;;;;5135115;27;20233;-62
2022/05/10 04:38:45;;;;;;;5.43;3.70;;;14.20;99.90;;;;;;5133092;27;20229;-63
2022/05/10 04:41:27;;;;;;;8.53;4.20;;;14.20;99.90;;;;;;5132817;27;20269;-62
2022/05/10 04:43:57;;;;;;;5.57;4.00;;;14.20;99.90;;;;;;5128968;27;20244;-62
2022/05/10 04:46:27;;;;;;;8.30;4.50;;;14.20;99.90;;;;;;5127043;27;20225;-62
2022/05/10 04:48:55;;;;;;;6.47;4.43;;;14.20;99.90;;;;;;5128898;27;20247;-62
2022/05/10 04:51:23;;;;;;;6.43;3.87;;;14.30;99.90;;;;;;5131658;27;20662;-62
2022/05/10 04:53:55;;;;;;;4.87;3.83;;;14.20;99.90;;;;;;5130543;27;20260;-62
2022/05/10 04:56:24;;;;;;;5.70;4.33;;;14.30;99.90;;;;;;5129713;27;20261;-62
2022/05/10 04:58:54;;;;;;;7.73;4.40;;;14.30;99.90;;;;;;5130306;27;20227;-62
2022/05/10 05:01:25;;;;;;;7.43;4.17;;;14.40;99.90;;;;;;5133731;27;20289;-61
2022/05/10 05:03:56;;;;;;;4.83;3.97;;;14.40;99.90;;;;;;5133589;27;20233;-62
2022/05/10 05:06:25;;;;;;;6.30;3.97;;;14.50;99.90;;;;;;5133595;27;20278;-62
2022/05/10 05:08:55;;;;;;;6.43;4.57;;;14.50;99.90;;;;;;5124640;27;20247;-62
2022/05/10 05:11:23;;;;;;;7.20;4.00;;;14.60;99.90;;;;;;5133068;27;20723;-62
2022/05/10 05:13:52;;;;;;;4.90;3.83;;;14.60;99.90;;;;;;5129287;27;20233;-62
2022/05/10 05:16:20;;;;;;;6.20;4.30;;;14.70;99.90;;;;;;5130557;27;20239;-62
2022/05/10 05:18:49;;;;;;;6.80;3.97;;;14.80;99.90;;;;;;5123640;27;20225;-63
2022/05/10 05:21:17;;;;;;;6.30;3.93;;;15.00;99.90;;;;;;5133902;27;20752;-62
2022/05/10 05:23:46;;;;;;;6.30;4.20;;;15.00;99.90;;;;;;5133640;27;20228;-62
2022/05/10 05:26:15;;;;;;;8.57;4.33;;;15.10;99.90;;;;;;5133302;27;20704;-62
2022/05/10 05:28:43;;;;;;;6.37;3.97;;;15.20;99.90;;;;;;5130203;27;20756;-62
2022/05/10 05:31:14;;;;;;;8.67;4.60;;;15.20;99.90;;;;;;5133466;27;20276;-62
2022/05/10 05:33:46;;;;;;;6.63;4.23;;;15.20;99.90;;;;;;5111353;28;20816;-62
2022/05/10 05:36:14;;;;;;;8.40;4.30;;;15.40;99.90;;;;;;5112794;28;20585;-62
2022/05/10 05:38:45;;;;;;;7.90;4.30;;;15.50;99.90;;;;;;5107976;27;20234;-62
2022/05/10 05:41:13;;;;;;;7.30;5.10;;;15.60;99.90;;;;;;5130898;27;20237;-63
2022/05/10 05:43:42;;;;;;;6.50;4.60;;;15.50;99.90;;;;;;5114401;27;20268;-62
2022/05/10 05:46:11;;;;;;;6.00;4.20;;;15.50;99.90;;;;;;5113272;27;20237;-62
2022/05/10 05:48:39;;;;;;;6.30;4.50;;;15.60;99.90;;;;;;5130518;27;20668;-63
2022/05/10 05:51:07;;;;;;;8.50;4.53;;;15.70;99.90;;;;;;5131817;27;20617;-62
2022/05/10 05:53:36;;;;;;;8.43;4.87;;;15.80;99.90;;;;;;5130698;27;20258;-62
2022/05/10 05:56:08;;;;;;;10.70;4.67;;;16.00;99.90;;;;;;5118684;27;20233;-62
2022/05/10 05:58:37;;;;;;;5.57;4.47;;;16.20;99.90;;;;;;5130178;27;20241;-62
2022/05/10 06:01:13;;;;;;;8.40;5.17;;;16.40;99.90;;;;;;5130196;27;20248;-62
2022/05/10 06:03:43;;;;;;;6.23;4.50;;;16.40;99.90;;;;;;5091537;28;20248;-62
2022/05/10 06:06:12;;;;;;;8.73;4.30;;;16.50;99.90;;;;;;5092630;28;20239;-62
2022/05/10 06:08:44;;;;;;;8.77;5.17;;;16.60;99.90;;;;;;5108741;28;20234;-62
2022/05/10 06:11:13;;;;;;;6.30;4.40;;;16.70;99.90;;;;;;5102734;27;20234;-62
2022/05/10 06:13:41;;;;;;;9.57;4.67;;;16.70;99.90;;;;;;5093434;28;20239;-63
2022/05/10 06:16:10;;;;;;;5.00;4.30;;;16.90;99.90;;;;;;5112299;27;20312;-62
2022/05/10 06:18:40;;;;;;;5.70;4.97;;;16.90;99.90;;;;;;5106346;27;20241;-62
2022/05/10 06:21:08;;;;;;;10.50;4.67;;;16.90;99.90;;;;;;5100934;28;20225;-63
2022/05/10 06:23:36;;;;;;;7.63;4.47;;;17.00;99.90;;;;;;5110307;28;20230;-62
2022/05/10 06:26:04;;;;;;;6.97;4.57;;;17.10;99.90;;;;;;5092749;28;20236;-63
2022/05/10 06:28:32;;;;;;;9.73;5.23;;;17.20;99.90;;;;;;5104373;28;20229;-62
2022/05/10 06:31:01;;;;;;;6.10;4.40;;;17.30;99.90;;;;;;5098660;27;20245;-63
2022/05/10 06:33:30;;;;;;;8.40;4.77;;;17.50;99.90;;;;;;5102893;28;20230;-63
2022/05/10 06:35:59;;;;;;;10.33;5.07;;;17.60;99.90;;;;;;5102868;27;20288;-62
2022/05/10 06:38:28;;;;;;;8.13;4.57;;;17.70;99.90;;;;;;5094758;28;20230;-63
2022/05/10 06:40:57;;;;;;;7.90;5.13;;;17.90;99.90;;;;;;5119364;27;20320;-63
2022/05/10 06:43:35;;;;;;;5.33;4.70;;;18.20;99.90;;;;;;5106988;28;20265;-63
2022/05/10 06:46:09;;;;;;;6.20;4.57;;;18.30;99.90;;;;;;5109190;28;20624;-64
2022/05/10 06:48:37;;;;;;;8.80;5.27;;;18.60;99.90;;;;;;5109212;28;20268;-63
2022/05/10 06:51:08;;;;;;;8.57;4.73;;;18.80;99.90;;;;;;5111126;28;20777;-63
2022/05/10 06:53:37;;;;;;;8.63;4.60;;;19.00;99.90;;;;;;5111639;28;20306;-63
2022/05/10 06:56:06;;;;;;;8.43;4.87;;;19.00;99.90;;;;;;5106579;27;20233;-63
2022/05/10 06:58:35;;;;;;;7.47;4.77;;;19.00;99.90;;;;;;5108730;27;20271;-63
2022/05/10 07:01:04;;;;;;;7.60;5.30;;;19.10;99.90;;;;;;5111174;28;20247;-63
2022/05/10 07:03:36;;;;;;;6.90;4.17;;;19.10;99.90;;;;;;5111264;27;20644;-63
2022/05/10 07:06:05;;;;;;;6.10;4.70;;;19.20;99.90;;;;;;5111361;28;20246;-63
2022/05/10 07:08:35;;;;;;;7.03;5.00;;;19.30;99.90;;;;;;5108862;27;20239;-63
2022/05/10 07:11:04;;;;;;;8.97;5.03;;;19.30;99.90;;;;;;5110941;28;20240;-63
2022/05/10 07:13:33;;;;;;;8.40;4.97;;;19.30;99.90;;;;;;5111289;28;20238;-63
2022/05/10 07:16:02;;;;;;;5.73;5.17;;;19.40;99.90;;;;;;5111278;28;20268;-63
2022/05/10 07:18:31;;;;;;;6.87;4.67;;;19.50;99.90;;;;;;5108734;28;20244;-63
2022/05/10 07:20:59;;;;;;;8.30;4.87;;;19.50;99.90;;;;;;5104712;28;20255;-64
2022/05/10 07:23:30;;;;;;;9.00;6.33;;;19.60;99.90;;;;;;5110826;28;20264;-63
2022/05/10 07:26:05;;;;;;;6.40;5.37;;;19.50;99.90;;;;;;5111056;28;20240;-62
2022/05/10 07:28:34;;;;;;;7.03;5.20;;;19.60;99.90;;;;;;5107649;28;20320;-62
2022/05/10 07:31:02;;;;;;;7.33;5.20;;;19.80;99.90;;;;;;5110829;28;20237;-62
2022/05/10 07:33:31;;;;;;;9.03;5.60;;;19.90;99.90;;;;;;5110992;28;20263;-62
2022/05/10 07:38:47;;;;;;;7.87;5.27;;;19.90;99.90;;;;;;5128925;27;20641;-62
2022/05/10 07:41:18;;;;;;;7.37;6.10;;;20.00;99.90;;;;;;5112890;27;20244;-63
2022/05/10 07:43:47;;;;;;;7.67;5.67;;;20.00;99.90;;;;;;5110641;28;20251;-62
2022/05/10 07:46:15;;;;;;;11.90;6.07;;;20.00;99.90;;;;;;5114346;28;20244;-63
2022/05/10 07:48:43;;;;;;;7.63;5.87;;;19.90;99.90;;;;;;5105343;27;20242;-62
2022/05/10 07:51:11;;;;;;;13.50;5.60;;;19.90;99.90;;;;;;5123902;27;20586;-62
2022/05/10 07:53:41;;;;;;;9.47;6.40;;;19.90;99.90;;;;;;5125138;27;20263;-63
2022/05/10 07:56:17;;;;;;;8.17;5.93;;;20.00;99.90;;;;;;5102695;28;20240;-63
2022/05/10 07:58:53;;;;;;;7.67;5.80;;;20.10;99.90;;;;;;5112383;27;20247;-63
2022/05/10 08:01:22;;;;;;;8.13;6.10;;;20.20;99.90;;;;;;5121734;27;20726;-62
2022/05/10 08:03:50;;;;;;;10.23;6.20;;;20.20;99.90;;;;;;5121667;27;20240;-62
2022/05/10 08:06:20;;;;;;;9.97;5.73;;;20.20;99.90;;;;;;5121441;28;20239;-62
2022/05/10 08:08:48;;;;;;;6.23;5.63;;;20.30;99.90;;;;;;5120945;27;20243;-62
2022/05/10 08:11:18;;;;;;;9.53;6.23;;;20.20;99.90;;;;;;5130678;27;20236;-63
2022/05/10 08:13:46;;;;;;;8.07;6.37;;;20.20;99.90;;;;;;5130887;27;20282;-63
2022/05/10 08:16:15;;;;;;;9.17;6.03;;;20.20;99.90;;;;;;5131571;28;20704;-62
2022/05/10 08:18:48;;;;;;;10.43;6.77;;;20.10;99.90;;;;;;5128291;27;20250;-63
2022/05/10 08:21:17;;;;;;;8.93;5.83;;;20.20;99.90;;;;;;5127708;27;20309;-63
2022/05/10 08:23:47;;;;;;;10.63;5.43;;;20.20;99.90;;;;;;5130339;27;20228;-63
2022/05/10 08:26:15;;;;;;;8.07;5.77;;;20.40;99.90;;;;;;5130524;27;20322;-62
2022/05/10 08:28:45;;;;;;;7.20;5.63;;;20.50;99.90;;;;;;5127451;27;20326;-62
2022/05/10 08:31:13;;;;;;;9.97;6.80;;;20.70;99.90;;;;;;5130567;27;20264;-62
2022/05/10 08:33:43;;;;;;;7.30;5.83;;;21.00;99.90;;;;;;5130942;27;20239;-63
2022/05/10 08:36:12;;;;;;;7.30;6.30;;;21.30;99.90;;;;;;5131302;27;20261;-62
2022/05/10 08:38:40;;;;;;;8.43;5.90;;;21.60;99.90;;;;;;5128905;27;20243;-62
2022/05/10 08:41:13;;;;;;;8.27;6.40;;;22.00;99.90;;;;;;5115429;27;20327;-63
2022/05/10 08:43:46;;;;;;;8.37;6.87;;;22.00;99.90;;;;;;5134796;27;20239;-62
2022/05/10 08:46:18;;;;;;;8.70;6.53;;;22.40;99.90;;;;;;5135017;27;20236;-63
2022/05/10 08:48:51;;;;;;;8.73;6.30;;;22.60;99.90;;;;;;5131860;27;20301;-63
2022/05/10 08:51:19;;;;;;;9.93;6.43;;;22.80;99.90;;;;;;5134015;27;20241;-63
2022/05/10 08:53:47;;;;;;;12.63;6.37;;;22.90;99.90;;;;;;5134165;27;20684;-63
2022/05/10 08:56:23;;;;;;;10.67;6.50;;;23.20;99.90;;;;;;5134425;27;20232;-62
2022/05/10 08:59:14;;;;;;;7.47;5.83;;;23.50;99.90;;;;;;5131290;27;20252;-63
2022/05/10 09:01:53;;;;;;;9.83;5.93;;;24.00;99.90;;;;;;5125908;27;20756;-63
2022/05/10 09:04:37;;;;;;;7.47;5.20;;;24.50;99.90;;;;;;5134007;27;20695;-63
2022/05/10 09:07:14;;;;;;;8.83;5.77;;;24.60;99.90;;;;;;5134158;27;20241;-63
2022/05/10 09:09:55;;;;;;;8.60;6.00;;;25.10;99.90;;;;;;5131461;27;20233;-63
2022/05/10 09:12:25;;;;;;;10.80;6.10;;;25.20;99.90;;;;;;5133756;27;20284;-63
2022/05/10 09:14:57;;;;;;;9.50;5.50;;;25.50;99.90;;;;;;5133896;27;20249;-63
2022/05/10 09:17:30;;;;;;;12.33;5.47;;;25.80;99.90;;;;;;5133672;27;20625;-63
2022/05/10 09:19:58;;;;;;;5.80;4.53;;;26.00;99.90;;;;;;5131949;27;20322;-63
2022/05/10 09:23:09;;;;;;;9.90;5.33;;;26.30;99.90;;;;;;5133324;27;20320;-64
2022/05/10 09:25:38;;;;;;;10.50;5.07;;;26.50;99.90;;;;;;5125263;27;20261;-63
2022/05/10 09:28:15;;;;;;;7.23;4.83;;;26.60;99.90;;;;;;5122878;27;20250;-63
2022/05/10 09:34:45;;;;;;;8.40;5.13;;;26.70;99.90;;;;;;5125528;27;20244;-64
2022/05/10 09:36:29;;;;;;;7.70;4.53;;;26.80;99.70;;;;;;5088646;27;20742;-64
2022/05/10 09:39:02;;;;;;;6.83;4.40;;;26.90;98.70;;;;;;5122996;27;20244;-64
2022/05/10 09:41:42;;;;;;;8.17;4.43;;;26.90;99.10;;;;;;5125221;27;20236;-64
2022/05/10 09:44:17;;;;;;;6.97;3.80;;;27.00;98.60;;;;;;5124589;27;20316;-63
2022/05/10 09:46:45;;;;;;;6.87;4.00;;;26.90;98.00;;;;;;5125612;27;20263;-64
2022/05/10 09:49:34;;;;;;;6.67;4.17;;;26.90;98.00;;;;;;5123394;27;20239;-64
2022/05/10 09:52:03;;;;;;;8.47;3.93;;;27.00;97.50;;;;;;5123998;27;20779;-64
2022/05/10 09:54:38;;;;;;;6.37;3.70;;;26.90;96.70;;;;;;5122558;27;20234;-64
2022/05/10 09:57:10;;;;;;;7.30;3.83;;;26.80;96.50;;;;;;5123891;27;21230;-64
2022/05/10 09:59:44;;;;;;;8.63;3.80;;;27.20;96.30;;;;;;5121715;27;20236;-64
2022/05/10 10:02:25;;;;;;;6.70;3.17;;;27.20;94.80;;;;;;5125224;27;21272;-64
2022/05/10 10:04:54;;;;;;;6.33;3.23;;;27.00;94.70;;;;;;5132588;27;20239;-63
2022/05/10 10:07:25;;;;;;;6.67;3.00;;;27.10;94.50;;;;;;5132848;27;20258;-64
2022/05/10 10:09:56;;;;;;;4.67;2.90;;;27.40;94.20;;;;;;5130301;27;20827;-64
2022/05/10 10:12:33;;;;;;;4.13;2.60;;;27.70;94.50;;;;;;5132821;27;20231;-64
2022/05/10 10:15:04;;;;;;;7.00;2.73;;;27.60;93.30;;;;;;5132568;27;20252;-64
2022/05/10 10:17:37;;;;;;;4.93;3.10;;;27.30;93.10;;;;;;5132215;27;20231;-65
2022/05/10 10:20:16;;;;;;;4.37;2.70;;;27.20;93.50;;;;;;5131526;27;20320;-64
2022/05/10 10:22:50;;;;;;;4.77;2.80;;;27.10;93.90;;;;;;5130089;27;20258;-64
2022/05/10 10:25:25;;;;;;;7.67;2.70;;;26.70;93.70;;;;;;5130255;27;20322;-64
2022/05/10 10:27:59;;;;;;;4.80;2.70;;;26.90;93.80;;;;;;5130043;27;21445;-64
2022/05/10 10:30:30;;;;;;;8.93;2.90;;;26.90;92.00;;;;;;5131586;27;20331;-64
2022/05/10 10:33:05;;;;;;;4.97;3.10;;;26.50;92.70;;;;;;5132195;27;20260;-64
2022/05/10 10:35:41;;;;;;;7.63;3.10;;;26.70;93.10;;;;;;5132393;27;20262;-64
2022/05/10 10:38:17;;;;;;;6.30;3.03;;;26.70;92.80;;;;;;5129350;27;20324;-64
2022/05/10 10:40:52;;;;;;;4.43;2.33;;;26.40;92.60;;;;;;5129164;27;20648;-64
2022/05/10 10:43:28;;;;;;;4.20;2.10;;;26.20;92.20;;;;;;5131916;27;20239;-64
2022/05/10 10:46:02;;;;;;;6.63;2.10;;;26.20;91.70;;;;;;5132357;27;20299;-64
2022/05/10 10:48:40;;;;;;;6.20;2.67;;;26.20;91.20;;;;;;5130163;27;20231;-64
2022/05/10 10:51:10;;;;;;;4.20;2.57;;;26.20;91.70;;;;;;5131901;27;20264;-64
2022/05/10 10:53:40;;;;;;;3.57;2.53;;;26.00;91.60;;;;;;5132043;27;20246;-64
2022/05/10 10:56:45;;;;;;;3.87;2.87;;;26.00;92.30;;;;;;5131596;27;20244;-64
2022/05/10 10:59:36;;;;;;;7.53;2.30;;;25.80;92.10;;;;;;5028507;28;20248;-65
2022/05/10 11:02:22;;;;;;;4.33;2.60;;;25.90;91.70;;;;;;5046979;28;20260;-65
2022/05/10 11:05:09;;;;;;;5.53;2.70;;;26.20;91.70;;;;;;5111428;27;20236;-64
2022/05/10 11:07:50;;;;;;;5.73;2.47;;;26.20;91.70;;;;;;5129415;27;20240;-65
2022/05/10 11:10:23;;;;;;;3.00;2.30;;;26.30;91.80;;;;;;5131000;27;20716;-64
2022/05/10 11:13:01;;;;;;;4.07;2.37;;;26.60;91.90;;;;;;5129433;27;20243;-64
2022/05/10 11:15:41;;;;;;;3.63;2.40;;;26.60;91.50;;;;;;5129545;27;20228;-64
2022/05/10 11:18:30;;;;;;;5.17;2.60;;;26.70;91.00;;;;;;5127019;27;20316;-64
2022/05/10 11:21:08;;;;;;;5.10;2.53;;;26.70;90.20;;;;;;5130200;27;20699;-64
2022/05/10 11:23:50;;;;;;;3.70;2.20;;;26.70;90.40;;;;;;5129917;27;20233;-64
2022/05/10 11:26:28;;;;;;;7.90;2.50;;;26.60;90.90;;;;;;5129007;27;20228;-64
2022/05/10 11:29:31;;;;;;;5.93;2.67;;;26.60;90.90;;;;;;5127444;27;20607;-64
2022/05/10 11:32:10;;;;;;;8.37;2.47;;;26.60;91.20;;;;;;5124953;27;20294;-64
2022/05/10 11:34:56;;;;;;;8.43;2.60;;;26.30;90.50;;;;;;5131614;27;20786;-64
2022/05/10 11:37:31;;;;;;;4.10;2.70;;;26.20;90.70;;;;;;5128640;27;20260;-64
2022/05/10 11:40:36;;;;;;;5.20;2.40;;;26.10;91.10;;;;;;5129509;27;20230;-64
2022/05/10 11:43:35;;;;;;;4.77;2.67;;;26.20;91.00;;;;;;5125714;27;20267;-65
2022/05/10 11:46:21;;;;;;;7.00;2.77;;;26.30;90.90;;;;;;5105728;27;20263;-64
2022/05/10 11:49:22;;;;;;;5.23;3.00;;;26.30;91.20;;;;;;5128774;27;20321;-65
2022/05/10 11:52:16;;;;;;;9.93;2.90;;;26.30;91.40;;;;;;5129983;27;20242;-64
2022/05/10 11:54:57;;;;;;;3.97;2.87;;;26.10;90.90;;;;;;5123109;28;20270;-64
2022/05/10 11:57:27;;;;;;;3.80;3.20;;;26.20;91.10;;;;;;5130808;27;20325;-64
2022/05/10 12:00:35;;;;;;;7.47;3.20;;;26.20;91.30;;;;;;5128696;27;20241;-64
2022/05/10 12:03:04;;;;;;;6.33;3.10;;;26.10;91.50;;;;;;5110346;28;20312;-64
2022/05/10 12:05:34;;;;;;;6.53;3.10;;;26.10;91.60;;;;;;5129775;27;20236;-64
2022/05/10 12:08:04;;;;;;;3.83;2.80;;;26.20;92.00;;;;;;5128290;28;20247;-64
2022/05/10 12:10:40;;;;;;;4.17;2.83;;;26.20;91.90;;;;;;5112568;27;20323;-64
2022/05/10 12:13:11;;;;;;;6.13;3.53;;;26.10;92.30;;;;;;5113083;27;20248;-64
2022/05/10 12:21:55;;;;;;;7.93;3.43;;;25.70;92.00;;;;;;5134866;27;20243;-64
2022/05/10 12:24:36;;;;;;;5.87;3.30;;;25.70;92.30;;;;;;5131562;27;20240;-64
2022/05/10 12:27:35;;;;;;;4.33;3.37;;;25.80;92.30;;;;;;5102109;27;20696;-64
2022/05/10 12:30:32;;;;;;;5.67;3.27;;;25.50;92.30;;;;;;5130643;27;20236;-64
2022/05/10 12:33:36;;;;;;;5.50;2.93;;;25.50;92.40;;;;;;5134147;27;20235;-64
2022/05/10 12:36:12;;;;;;;5.27;2.80;;;25.50;92.90;;;;;;5129211;27;20278;-64
2022/05/10 12:38:46;;;;;;;3.37;2.77;;;25.50;92.60;;;;;;5132443;27;20328;-64
2022/05/10 12:41:40;;;;;;;8.57;3.30;;;25.60;92.40;;;;;;5134937;27;20235;-64
2022/05/10 12:44:49;;;;;;;5.77;3.17;;;25.70;92.30;;;;;;5134244;27;20248;-64
2022/05/10 12:47:52;;;;;;;5.37;3.03;;;25.90;92.50;;;;;;5094141;27;20297;-64
2022/05/10 12:50:32;;;;;;;5.87;3.23;;;25.80;92.30;;;;;;5130790;27;20323;-64
2022/05/10 12:53:17;;;;;;;7.33;3.27;;;25.60;92.30;;;;;;5133924;27;20224;-63
2022/05/10 12:55:46;;;;;;;4.97;3.10;;;25.60;92.70;;;;;;5131823;27;20232;-64
2022/05/10 12:58:21;;;;;;;4.03;3.40;;;25.40;92.80;;;;;;5131914;27;20266;-64
2022/05/10 13:00:54;;;;;;;4.30;3.40;;;25.20;93.20;;;;;;5126775;27;20264;-64
2022/05/10 13:03:24;;;;;;;6.53;3.50;;;25.10;93.70;;;;;;5134573;27;20288;-64
2022/05/10 13:06:04;;;;;;;4.30;3.43;;;25.00;93.80;;;;;;5133855;27;20775;-64
2022/05/10 13:08:57;;;;;;;9.03;3.87;;;24.90;94.20;;;;;;5131313;27;20235;-63
2022/05/10 13:11:44;;;;;;;10.73;3.90;;;24.70;94.60;;;;;;5133926;27;20234;-64
2022/05/10 13:14:13;;;;;;;7.50;4.00;;;24.30;95.60;;;;;;5133320;27;20245;-63
2022/05/10 13:16:46;;;;;;;6.47;4.03;;;23.90;97.20;;;;;;5124326;27;20225;-63
2022/05/10 13:19:14;;;;;;;5.83;3.80;;;23.50;97.70;;;;;;5126508;27;20283;-63
2022/05/10 13:21:43;;;;;;;7.60;4.13;;;23.50;98.20;;;;;;5133930;27;20250;-64
2022/05/10 13:24:15;;;;;;;5.90;3.77;;;23.50;98.10;;;;;;5133777;27;20712;-64
2022/05/10 13:26:56;;;;;;;6.43;3.60;;;23.40;98.20;;;;;;5124217;27;20303;-64
2022/05/10 13:29:45;;;;;;;8.20;4.67;;;23.30;98.90;;;;;;5130038;27;20230;-64
2022/05/10 13:32:28;;;;;;;5.73;4.40;;;23.10;99.80;;;;;;5133857;27;20291;-64
2022/05/10 13:35:04;;;;;;;6.13;4.60;;;22.80;99.90;;;;;;5132934;27;20245;-64